Terminal Aerodrome Forecast
Issued by NWS

Home | Current Version | Previous Version | Text Only | Print | Product List | Glossary On
Versions: 1 2 3 4 5 6 7 8 9 10 11 12 13 14 15
000
FTUS43 KEAX 021100 CCA
TAFSTJ
TAF COR
KSTJ 021125Z 0212/0312 VRB05KT P6SM SCT005 BKN020
     FM021500 33013KT P6SM BKN025
     FM021900 32009KT P6SM VCTS OVC020CB
      TEMPO 0219/0223 4SM -TSRA BR
     FM030400 34007KT P6SM SCT020=

USA.gov is the U.S. government's official web portal to all federal, state and local government web resources and services.